Time;durP1;ratioP1;P1;durP2;ratioP2;P2;SDS_P1;SDS_P2;PMS_P1;PMS_P2;Temp;Humidity;BMP_temperature;BMP_pressure;BME280_temperature;BME280_humidity;BME280_pressure;Samples;Min_cycle;Max_cycle;Signal;HPM_P1;HPM_P2
2022/06/19 00:01:04;;;;;;;8.40;5.90;;;22.10;99.90;;;;;;5140635;28;20477;-45
2022/06/19 00:03:41;;;;;;;7.37;5.80;;;22.00;99.90;;;;;;5132708;28;21056;-46
2022/06/19 00:06:13;;;;;;;13.27;5.67;;;21.90;99.90;;;;;;5139210;28;20454;-46
2022/06/19 00:08:48;;;;;;;9.03;4.80;;;21.90;99.90;;;;;;5132889;28;20547;-48
2022/06/19 00:11:21;;;;;;;5.63;4.77;;;21.90;99.90;;;;;;5143737;28;20432;-47
2022/06/19 00:13:52;;;;;;;12.57;5.80;;;21.90;99.90;;;;;;5136577;28;20460;-44
2022/06/19 00:16:23;;;;;;;7.33;5.57;;;21.80;99.90;;;;;;5142069;28;20444;-45
2022/06/19 00:18:53;;;;;;;6.63;5.37;;;21.80;99.90;;;;;;5137972;28;20201;-46
2022/06/19 00:21:24;;;;;;;5.67;4.77;;;21.80;99.90;;;;;;5141021;28;20197;-47
2022/06/19 00:23:55;;;;;;;5.20;4.70;;;21.80;99.90;;;;;;5140085;28;20225;-47
2022/06/19 00:26:25;;;;;;;5.93;4.97;;;21.80;99.90;;;;;;5136054;28;20317;-45
2022/06/19 00:28:57;;;;;;;13.90;5.80;;;21.80;99.90;;;;;;5135820;28;20272;-48
2022/06/19 00:31:27;;;;;;;9.50;5.90;;;21.80;99.90;;;;;;5135166;28;20221;-45
2022/06/19 00:33:58;;;;;;;5.77;5.27;;;21.80;99.90;;;;;;5137800;28;20452;-45
2022/06/19 00:36:29;;;;;;;7.63;5.20;;;21.70;99.90;;;;;;5135684;28;20189;-45
2022/06/19 00:39:00;;;;;;;5.30;4.80;;;21.70;99.90;;;;;;5139167;28;20871;-45
2022/06/19 00:41:39;;;;;;;6.57;5.17;;;21.70;99.90;;;;;;5141086;28;20189;-46
2022/06/19 00:44:12;;;;;;;5.63;4.90;;;21.70;99.90;;;;;;5136611;28;20211;-45
2022/06/19 00:46:47;;;;;;;8.27;5.67;;;21.70;99.90;;;;;;5138086;28;20441;-45
2022/06/19 00:49:34;;;;;;;4.90;4.40;;;21.70;99.90;;;;;;5138295;28;20436;-45
2022/06/19 00:52:16;;;;;;;7.80;6.47;;;21.80;99.90;;;;;;5146949;28;20787;-45
2022/06/19 00:54:48;;;;;;;6.17;4.60;;;21.70;99.90;;;;;;5137775;28;20964;-45
2022/06/19 00:57:20;;;;;;;7.07;5.03;;;21.70;99.90;;;;;;5132447;28;20444;-45
2022/06/19 00:59:59;;;;;;;8.50;5.60;;;21.70;99.90;;;;;;5129449;28;20517;-48
2022/06/19 01:02:31;;;;;;;6.67;5.50;;;21.60;99.90;;;;;;5142589;28;20489;-46
2022/06/19 01:05:02;;;;;;;5.63;4.63;;;21.60;99.90;;;;;;5143823;28;20476;-46
2022/06/19 01:07:33;;;;;;;18.13;5.10;;;21.60;99.90;;;;;;5143131;28;20444;-45
2022/06/19 01:10:04;;;;;;;4.97;4.60;;;21.60;99.90;;;;;;5142274;28;20200;-45
2022/06/19 01:12:35;;;;;;;14.33;5.40;;;21.50;99.90;;;;;;5141081;28;20528;-46
2022/06/19 01:15:10;;;;;;;5.43;4.87;;;21.60;99.90;;;;;;5139152;28;20885;-49
2022/06/19 01:17:41;;;;;;;8.23;5.43;;;21.50;99.90;;;;;;5134485;28;20284;-49
2022/06/19 01:20:12;;;;;;;10.70;4.60;;;21.50;99.90;;;;;;5155984;28;20451;-47
2022/06/19 01:22:59;;;;;;;14.37;5.33;;;21.50;99.90;;;;;;5137473;28;20836;-45
2022/06/19 01:25:32;;;;;;;5.60;5.10;;;21.50;99.90;;;;;;5132476;28;20209;-45
2022/06/19 01:31:01;;;;;;;5.97;5.37;;;21.50;99.90;;;;;;5133444;28;21942;-46
2022/06/19 01:33:46;;;;;;;11.43;4.87;;;21.50;99.90;;;;;;5130565;28;20469;-46
2022/06/19 01:36:20;;;;;;;7.60;5.17;;;21.40;99.90;;;;;;5134868;28;20475;-46
2022/06/19 01:38:52;;;;;;;10.40;5.13;;;21.40;99.90;;;;;;5138142;28;20441;-45
2022/06/19 01:41:32;;;;;;;7.63;4.83;;;21.40;99.90;;;;;;5134994;28;20524;-48
2022/06/19 01:44:04;;;;;;;6.47;5.70;;;21.40;99.90;;;;;;5139089;28;20886;-44
2022/06/19 01:46:34;;;;;;;8.03;4.97;;;21.30;99.90;;;;;;5138605;28;20447;-44
2022/06/19 01:49:05;;;;;;;7.93;5.20;;;21.30;99.90;;;;;;5142484;28;20449;-46
2022/06/19 01:51:37;;;;;;;5.10;4.60;;;21.30;99.90;;;;;;5143324;28;20217;-46
2022/06/19 01:54:23;;;;;;;6.10;5.50;;;21.30;99.90;;;;;;5143596;28;20186;-46
2022/06/19 01:56:55;;;;;;;5.60;5.10;;;21.30;99.90;;;;;;5134708;28;20773;-45
2022/06/19 01:59:31;;;;;;;13.67;5.43;;;21.30;99.90;;;;;;5136962;28;20804;-46
2022/06/19 02:02:04;;;;;;;5.57;4.87;;;21.30;99.90;;;;;;5128915;28;20793;-46
2022/06/19 02:04:35;;;;;;;5.50;5.00;;;21.30;99.90;;;;;;5139902;28;20976;-45
2022/06/19 02:07:12;;;;;;;8.10;5.70;;;21.20;99.90;;;;;;5136517;28;20443;-46
2022/06/19 02:09:44;;;;;;;5.07;4.53;;;21.20;99.90;;;;;;5130237;28;20698;-45
2022/06/19 02:12:15;;;;;;;6.70;4.87;;;21.20;99.90;;;;;;5138156;28;20460;-49
2022/06/19 02:14:45;;;;;;;11.50;5.20;;;21.20;99.90;;;;;;5135723;28;23728;-46
2022/06/19 02:17:35;;;;;;;9.03;4.87;;;21.20;99.90;;;;;;5136337;28;20244;-49
2022/06/19 02:20:07;;;;;;;5.73;4.40;;;21.20;99.90;;;;;;5153121;28;20225;-47
2022/06/19 02:22:37;;;;;;;5.10;4.60;;;21.20;99.90;;;;;;5136263;28;20465;-46
2022/06/19 02:25:08;;;;;;;10.80;5.50;;;21.20;99.90;;;;;;5136167;28;20473;-47
2022/06/19 02:27:39;;;;;;;5.33;4.83;;;21.20;99.90;;;;;;5135890;28;20237;-46
2022/06/19 02:30:12;;;;;;;7.27;5.20;;;21.20;99.90;;;;;;5138334;28;20196;-49
2022/06/19 02:32:49;;;;;;;5.30;4.83;;;21.30;99.90;;;;;;5130337;28;20292;-47
2022/06/19 02:35:23;;;;;;;5.57;4.23;;;21.30;99.90;;;;;;5138718;28;20963;-46
2022/06/19 02:37:56;;;;;;;7.73;4.73;;;21.30;99.90;;;;;;5141029;28;20495;-45
2022/06/19 02:40:34;;;;;;;4.83;4.53;;;21.20;99.90;;;;;;5136459;28;20452;-46
2022/06/19 02:43:15;;;;;;;6.60;5.20;;;21.20;99.90;;;;;;5131702;28;20465;-45
2022/06/19 02:45:46;;;;;;;6.80;4.73;;;21.30;99.90;;;;;;5134611;28;20974;-46
2022/06/19 02:48:29;;;;;;;5.33;4.90;;;21.20;99.90;;;;;;5134368;28;20437;-46
2022/06/19 02:51:04;;;;;;;6.97;4.90;;;21.20;99.90;;;;;;5140430;28;20221;-46
2022/06/19 02:53:34;;;;;;;5.60;5.10;;;21.20;99.90;;;;;;5135920;28;20465;-46
2022/06/19 02:56:05;;;;;;;4.80;4.50;;;21.20;99.90;;;;;;5130049;28;20445;-49
2022/06/19 02:58:36;;;;;;;8.00;4.87;;;21.20;99.90;;;;;;5129768;28;20325;-45
2022/06/19 03:01:06;;;;;;;8.37;4.90;;;21.20;99.90;;;;;;5137521;28;20487;-47
2022/06/19 03:03:37;;;;;;;12.30;4.40;;;21.20;99.90;;;;;;5135465;28;20221;-47
2022/06/19 03:06:07;;;;;;;8.70;5.30;;;21.20;99.90;;;;;;5139573;28;20182;-46
2022/06/19 03:08:38;;;;;;;5.77;4.77;;;21.30;99.90;;;;;;5137348;28;20186;-47
2022/06/19 03:11:10;;;;;;;10.93;5.97;;;21.30;99.90;;;;;;5138181;28;20277;-46
2022/06/19 03:13:40;;;;;;;6.37;5.77;;;21.30;99.90;;;;;;5142367;28;20205;-46
2022/06/19 03:16:12;;;;;;;6.10;5.20;;;21.30;99.90;;;;;;5147254;28;20631;-45
2022/06/19 03:18:43;;;;;;;8.60;6.40;;;21.30;99.90;;;;;;5143518;28;20181;-45
2022/06/19 03:21:13;;;;;;;5.53;5.03;;;21.30;99.90;;;;;;5146311;28;20439;-45
2022/06/19 03:23:44;;;;;;;5.60;5.10;;;21.30;99.90;;;;;;5144601;28;20223;-45
2022/06/19 03:26:15;;;;;;;9.20;5.20;;;21.30;99.90;;;;;;5144438;28;20512;-45
2022/06/19 03:28:46;;;;;;;6.60;5.40;;;21.30;99.90;;;;;;5129398;28;20449;-45
2022/06/19 03:31:21;;;;;;;7.87;5.47;;;21.30;99.90;;;;;;5143187;28;20615;-46
2022/06/19 03:33:52;;;;;;;5.37;4.87;;;21.30;99.90;;;;;;5156664;28;20205;-46
2022/06/19 03:36:24;;;;;;;7.53;5.13;;;21.30;99.90;;;;;;5138345;28;21851;-47
2022/06/19 03:38:54;;;;;;;8.60;5.77;;;21.40;99.90;;;;;;5144299;28;20504;-49
2022/06/19 03:41:25;;;;;;;6.53;5.87;;;21.40;99.90;;;;;;5144195;28;20563;-47
2022/06/19 03:43:55;;;;;;;5.37;4.90;;;21.40;99.90;;;;;;5140735;28;20209;-46
2022/06/19 03:46:26;;;;;;;14.53;5.60;;;21.50;99.90;;;;;;5148449;28;20221;-45
2022/06/19 03:48:57;;;;;;;6.07;5.47;;;21.60;99.90;;;;;;5145100;28;20522;-45
2022/06/19 03:51:28;;;;;;;6.30;5.40;;;21.60;99.90;;;;;;5145720;28;20182;-45
2022/06/19 03:53:58;;;;;;;7.43;5.80;;;21.70;99.90;;;;;;5140509;28;20186;-49
2022/06/19 03:56:31;;;;;;;6.67;5.50;;;21.70;99.90;;;;;;5160213;28;20182;-47
2022/06/19 03:59:03;;;;;;;15.90;5.30;;;21.80;99.90;;;;;;5145940;28;20189;-46
2022/06/19 04:01:36;;;;;;;7.83;5.30;;;21.80;99.90;;;;;;5147053;28;20813;-45
2022/06/19 04:04:08;;;;;;;9.27;6.10;;;21.90;99.90;;;;;;5147522;28;20557;-46
2022/06/19 04:06:42;;;;;;;5.80;5.40;;;21.90;99.90;;;;;;5141475;28;20531;-45
2022/06/19 04:09:17;;;;;;;6.63;5.33;;;22.00;99.90;;;;;;5146745;28;20460;-46
2022/06/19 04:11:47;;;;;;;8.23;5.73;;;22.10;99.90;;;;;;5144886;28;20535;-46
2022/06/19 04:14:18;;;;;;;12.57;5.37;;;22.20;99.90;;;;;;5149872;28;20444;-47
2022/06/19 04:16:48;;;;;;;8.13;5.70;;;22.30;99.90;;;;;;5143817;28;20443;-46
2022/06/19 04:19:19;;;;;;;8.97;6.87;;;22.40;99.90;;;;;;5141958;28;20284;-46
2022/06/19 04:21:50;;;;;;;13.47;6.17;;;22.50;99.90;;;;;;5128767;28;20206;-48
2022/06/19 04:24:21;;;;;;;10.30;5.73;;;22.60;99.90;;;;;;5145961;28;20209;-48
2022/06/19 04:26:51;;;;;;;9.27;6.40;;;22.60;99.90;;;;;;5146036;28;20232;-46
2022/06/19 04:29:22;;;;;;;6.57;5.20;;;22.70;99.90;;;;;;5139074;28;20449;-46
2022/06/19 04:31:55;;;;;;;9.50;6.93;;;22.90;99.90;;;;;;5138875;28;20643;-46
2022/06/19 04:34:26;;;;;;;6.60;5.87;;;22.90;99.90;;;;;;5138444;28;20221;-46
2022/06/19 04:36:57;;;;;;;6.77;5.53;;;23.00;99.90;;;;;;5144427;28;20995;-45
2022/06/19 04:39:27;;;;;;;15.70;5.53;;;23.10;99.90;;;;;;5144872;28;20201;-46
2022/06/19 04:41:58;;;;;;;7.07;6.37;;;23.30;99.90;;;;;;5148076;28;20216;-46
2022/06/19 04:44:29;;;;;;;9.33;6.00;;;23.50;99.90;;;;;;5139102;28;20229;-47
2022/06/19 04:46:59;;;;;;;8.87;5.90;;;23.70;99.90;;;;;;5143159;28;20659;-47
2022/06/19 04:49:30;;;;;;;13.90;5.90;;;23.90;99.90;;;;;;5136982;28;20669;-46
2022/06/19 04:52:01;;;;;;;6.83;5.37;;;24.20;99.90;;;;;;5138249;28;20220;-46
2022/06/19 04:54:31;;;;;;;15.90;6.27;;;24.60;98.40;;;;;;5132395;28;20677;-47
2022/06/19 04:57:02;;;;;;;5.97;5.20;;;25.10;96.90;;;;;;5130640;28;20213;-45
2022/06/19 04:59:32;;;;;;;11.17;6.50;;;25.60;94.60;;;;;;5136969;28;20194;-46
2022/06/19 05:02:03;;;;;;;9.47;5.77;;;25.80;92.80;;;;;;5122986;28;20214;-50
2022/06/19 05:04:34;;;;;;;4.63;4.33;;;26.30;90.70;;;;;;5133418;28;20224;-46
2022/06/19 05:07:04;;;;;;;8.73;5.60;;;26.70;87.90;;;;;;5137785;28;20185;-45
2022/06/19 05:09:35;;;;;;;6.67;6.03;;;27.10;83.70;;;;;;5136553;28;20699;-46
2022/06/19 05:12:06;;;;;;;20.10;6.80;;;27.60;78.90;;;;;;5139115;28;20698;-45
2022/06/19 05:14:38;;;;;;;5.77;5.37;;;28.20;74.20;;;;;;5142469;28;20625;-45
2022/06/19 05:17:09;;;;;;;9.50;6.27;;;28.60;69.70;;;;;;5135842;28;20198;-46
2022/06/19 05:19:41;;;;;;;8.60;6.37;;;29.10;65.70;;;;;;5139137;28;21022;-46
2022/06/19 05:22:11;;;;;;;5.87;5.23;;;29.50;62.60;;;;;;5140456;28;20210;-46
2022/06/19 05:24:42;;;;;;;7.13;6.07;;;30.10;59.50;;;;;;5136869;28;20468;-45
2022/06/19 05:27:13;;;;;;;16.63;6.17;;;30.70;57.20;;;;;;5137951;28;20256;-45
2022/06/19 05:29:43;;;;;;;8.80;5.10;;;31.20;54.50;;;;;;5138886;28;20195;-46
2022/06/19 05:32:14;;;;;;;8.10;5.60;;;31.90;52.20;;;;;;5143279;28;20468;-46
2022/06/19 05:34:45;;;;;;;15.53;5.37;;;32.60;50.20;;;;;;5138059;28;20196;-46
2022/06/19 05:37:15;;;;;;;8.33;5.40;;;33.20;48.30;;;;;;5137813;28;20189;-45
2022/06/19 05:39:46;;;;;;;13.43;6.00;;;33.60;46.50;;;;;;5138765;28;20224;-45
2022/06/19 05:42:17;;;;;;;11.63;4.83;;;34.30;44.50;;;;;;5139502;28;20228;-45
2022/06/19 05:44:47;;;;;;;5.97;5.30;;;34.40;43.20;;;;;;5143418;28;20220;-47
2022/06/19 05:47:18;;;;;;;8.03;5.10;;;34.80;42.60;;;;;;5138597;28;20240;-45
2022/06/19 05:49:49;;;;;;;7.32;5.20;;;34.90;41.90;;;;;;5139479;28;20189;-46
2022/06/19 05:52:24;;;;;;;8.63;5.10;;;35.20;40.50;;;;;;5139448;28;20197;-45
2022/06/19 05:54:54;;;;;;;8.13;5.15;;;35.60;39.90;;;;;;5141504;28;20689;-45
2022/06/19 05:57:25;;;;;;;6.68;4.70;;;36.00;38.20;;;;;;5141581;28;20204;-46
2022/06/19 05:59:56;;;;;;;14.50;5.03;;;36.30;37.80;;;;;;5143950;28;20193;-46
2022/06/19 06:02:26;;;;;;;8.50;4.50;;;36.80;36.60;;;;;;5143114;28;20577;-46
2022/06/19 06:04:57;;;;;;;9.38;4.72;;;37.20;36.00;;;;;;5139813;28;20275;-46
2022/06/19 06:07:29;;;;;;;7.25;4.95;;;37.50;34.90;;;;;;5138981;28;20697;-48
2022/06/19 06:09:59;;;;;;;5.53;5.00;;;37.60;34.50;;;;;;5135394;28;20252;-46
2022/06/19 06:12:31;;;;;;;6.45;4.90;;;37.20;33.90;;;;;;5132140;28;20201;-48
2022/06/19 06:15:02;;;;;;;10.55;5.50;;;37.80;34.00;;;;;;5140713;28;20283;-48
2022/06/19 06:17:32;;;;;;;7.28;5.70;;;38.20;33.40;;;;;;5140072;28;20228;-45
2022/06/19 06:20:03;;;;;;;6.93;4.55;;;38.60;32.80;;;;;;5138115;28;20189;-49
2022/06/19 06:22:34;;;;;;;6.20;4.97;;;38.90;32.30;;;;;;5138485;28;20209;-49
2022/06/19 06:25:06;;;;;;;9.20;4.88;;;39.40;31.10;;;;;;5130876;28;20224;-46
2022/06/19 06:27:37;;;;;;;5.15;4.38;;;39.70;30.60;;;;;;5136385;28;20350;-47
2022/06/19 06:30:09;;;;;;;13.32;4.85;;;39.60;30.50;;;;;;5140935;28;20192;-45
2022/06/19 06:32:40;;;;;;;15.80;5.22;;;39.40;29.90;;;;;;5146771;28;20906;-45
2022/06/19 06:35:10;;;;;;;4.20;3.70;;;39.50;30.00;;;;;;5136163;28;20320;-47
2022/06/19 06:37:41;;;;;;;6.85;4.57;;;39.80;29.90;;;;;;5135815;28;20610;-46
2022/06/19 06:40:12;;;;;;;9.10;5.53;;;40.40;29.50;;;;;;5144442;28;20173;-46
2022/06/19 06:42:45;;;;;;;13.38;5.43;;;41.10;28.90;;;;;;5136570;28;20213;-45
2022/06/19 06:45:16;;;;;;;6.93;4.40;;;41.10;28.10;;;;;;5133639;28;20220;-46
2022/06/19 06:47:47;;;;;;;8.18;5.00;;;41.20;28.30;;;;;;5135143;28;20553;-47
2022/06/19 06:50:18;;;;;;;10.63;4.75;;;41.30;28.10;;;;;;5131424;28;20197;-46
2022/06/19 06:52:48;;;;;;;7.60;4.15;;;41.50;28.00;;;;;;5144398;28;20204;-46
2022/06/19 06:55:19;;;;;;;6.05;4.10;;;41.90;27.60;;;;;;5138123;28;20585;-46
2022/06/19 06:57:50;;;;;;;8.63;4.05;;;42.30;26.80;;;;;;5143442;28;20217;-48
2022/06/19 07:00:23;;;;;;;10.10;4.18;;;42.60;26.70;;;;;;5142304;28;20773;-47
2022/06/19 07:02:53;;;;;;;11.10;5.18;;;42.80;26.50;;;;;;5144784;28;20759;-45
2022/06/19 07:05:24;;;;;;;6.90;3.90;;;42.60;26.50;;;;;;5141788;28;20220;-46
2022/06/19 07:07:55;;;;;;;12.52;5.03;;;42.60;26.50;;;;;;5141493;28;20184;-46
2022/06/19 07:10:26;;;;;;;8.38;4.55;;;42.20;26.40;;;;;;5142410;28;20176;-46
2022/06/19 07:12:57;;;;;;;22.60;5.07;;;42.30;26.50;;;;;;5140175;28;20236;-45
2022/06/19 07:15:28;;;;;;;25.75;5.78;;;42.20;26.40;;;;;;5143605;28;20197;-45
2022/06/19 07:17:58;;;;;;;11.52;4.63;;;42.60;26.20;;;;;;5146036;28;20201;-45
2022/06/19 07:20:30;;;;;;;14.50;4.72;;;42.50;26.40;;;;;;5146645;28;20196;-46
2022/06/19 07:23:03;;;;;;;11.07;5.40;;;42.50;25.90;;;;;;5145641;28;20279;-46
2022/06/19 07:25:34;;;;;;;9.98;4.43;;;42.80;26.20;;;;;;5137359;28;20211;-46
2022/06/19 07:28:05;;;;;;;6.07;4.43;;;43.00;26.00;;;;;;5140753;28;20193;-45
2022/06/19 07:30:35;;;;;;;14.25;4.72;;;43.10;25.70;;;;;;5143888;28;20316;-46
2022/06/19 07:33:06;;;;;;;10.57;4.45;;;43.40;25.40;;;;;;5142822;28;20236;-45
2022/06/19 07:35:37;;;;;;;12.05;4.40;;;43.90;25.00;;;;;;5147880;28;20185;-46
2022/06/19 07:38:07;;;;;;;17.58;4.15;;;43.60;24.70;;;;;;5146276;28;20327;-45
2022/06/19 07:40:38;;;;;;;7.40;4.40;;;43.30;25.20;;;;;;5143367;28;20646;-48
2022/06/19 07:43:08;;;;;;;9.43;4.45;;;43.00;25.30;;;;;;5141780;28;20593;-48
2022/06/19 07:45:40;;;;;;;10.60;3.75;;;43.30;25.00;;;;;;5142252;28;20208;-47
2022/06/19 07:51:00;;;;;;;17.80;4.07;;;42.80;25.00;;;;;;5133539;28;20296;-46
2022/06/19 07:53:31;;;;;;;7.88;3.88;;;42.50;25.00;;;;;;5127928;28;20204;-48
2022/06/19 07:56:02;;;;;;;12.07;3.40;;;42.10;25.20;;;;;;5132803;28;20177;-46
2022/06/19 07:58:36;;;;;;;14.65;4.55;;;42.10;25.50;;;;;;5128147;28;20550;-48
2022/06/19 08:01:07;;;;;;;15.10;5.18;;;42.90;25.10;;;;;;5115773;28;20188;-47
2022/06/19 08:03:37;;;;;;;14.77;3.90;;;43.30;24.60;;;;;;5135258;28;20212;-48
2022/06/19 08:06:08;;;;;;;11.00;3.88;;;43.40;24.80;;;;;;5133801;28;20193;-46
2022/06/19 08:08:39;;;;;;;20.70;5.20;;;43.70;24.70;;;;;;5142036;28;20181;-48
2022/06/19 08:11:10;;;;;;;9.45;3.25;;;44.00;24.10;;;;;;5143531;28;20188;-46
2022/06/19 08:13:41;;;;;;;10.05;4.45;;;43.90;24.40;;;;;;5133985;28;20243;-49
2022/06/19 08:16:11;;;;;;;8.98;4.30;;;44.50;24.00;;;;;;5127491;28;20181;-49
2022/06/19 08:18:42;;;;;;;14.35;5.28;;;45.20;23.20;;;;;;5134699;28;20189;-47
2022/06/19 08:21:13;;;;;;;19.35;3.90;;;45.20;23.10;;;;;;5132332;28;20231;-45
2022/06/19 08:23:43;;;;;;;8.50;3.10;;;45.30;22.90;;;;;;5136243;28;20205;-46
2022/06/19 08:26:14;;;;;;;7.22;3.80;;;45.30;23.30;;;;;;5137587;28;20546;-46
2022/06/19 08:29:00;;;;;;;9.70;3.63;;;45.20;22.50;;;;;;5140152;28;20189;-46
2022/06/19 08:31:32;;;;;;;15.15;4.55;;;45.40;22.40;;;;;;5142239;28;20173;-46
2022/06/19 08:34:03;;;;;;;19.90;3.30;;;45.20;22.20;;;;;;5139383;28;20216;-46
2022/06/19 08:36:35;;;;;;;6.93;3.55;;;45.40;22.10;;;;;;5134368;28;20554;-47
2022/06/19 08:39:10;;;;;;;9.18;4.47;;;45.00;22.00;;;;;;5143656;28;20189;-48
2022/06/19 08:42:02;;;;;;;14.23;3.38;;;44.40;22.20;;;;;;5128391;28;20555;-48
2022/06/19 08:44:51;;;;;;;11.48;3.80;;;44.30;22.40;;;;;;5129723;28;20224;-48
2022/06/19 08:47:43;;;;;;;9.93;4.35;;;44.00;22.80;;;;;;5130050;28;20261;-46
2022/06/19 08:50:47;;;;;;;15.25;4.13;;;44.20;22.10;;;;;;5131143;28;20185;-48
2022/06/19 08:53:39;;;;;;;16.45;4.80;;;44.30;22.40;;;;;;5129068;28;20201;-47
2022/06/19 08:56:10;;;;;;;16.77;5.20;;;42.50;22.90;;;;;;5131778;28;20181;-47
2022/06/19 08:59:15;;;;;;;22.67;5.55;;;41.00;23.90;;;;;;5134795;28;20673;-46
2022/06/19 09:02:25;;;;;;;16.45;5.47;;;39.20;25.40;;;;;;5129858;28;20200;-48
2022/06/19 09:08:19;;;;;;;21.27;6.22;;;37.60;27.10;;;;;;5131024;28;20181;-47
2022/06/19 09:11:23;;;;;;;17.02;6.45;;;37.10;27.50;;;;;;5125682;28;20196;-47
2022/06/19 09:14:07;;;;;;;18.08;6.30;;;36.90;28.00;;;;;;5143580;28;20208;-48
2022/06/19 09:16:40;;;;;;;19.60;6.43;;;36.90;28.20;;;;;;5140471;28;20200;-49
2022/06/19 09:19:15;;;;;;;19.80;7.55;;;36.90;28.10;;;;;;5146080;28;20177;-45
2022/06/19 09:22:09;;;;;;;18.52;7.35;;;36.90;28.30;;;;;;5145610;28;20193;-46
2022/06/19 09:25:05;;;;;;;16.38;6.43;;;37.00;28.30;;;;;;5141330;28;20193;-45
2022/06/19 09:27:43;;;;;;;11.50;5.95;;;36.90;27.90;;;;;;5157442;28;20212;-46
2022/06/19 09:30:22;;;;;;;31.67;7.60;;;36.60;28.00;;;;;;5144069;28;20659;-45
2022/06/19 09:33:03;;;;;;;15.88;6.50;;;36.70;27.90;;;;;;5145697;28;20201;-46
2022/06/19 09:35:47;;;;;;;12.77;6.00;;;36.50;27.90;;;;;;5146553;28;20236;-45
2022/06/19 09:38:24;;;;;;;24.23;5.97;;;36.50;27.70;;;;;;5143967;28;20189;-46
2022/06/19 09:41:00;;;;;;;16.58;6.05;;;36.60;28.30;;;;;;5142577;28;20212;-48
2022/06/19 09:43:47;;;;;;;20.70;6.50;;;36.50;27.90;;;;;;5145351;28;20692;-46
2022/06/19 09:46:29;;;;;;;14.52;5.20;;;36.50;28.00;;;;;;5141768;28;21223;-47
2022/06/19 09:49:29;;;;;;;12.23;4.85;;;36.60;27.60;;;;;;5132867;28;20178;-47
2022/06/19 09:52:00;;;;;;;12.60;5.68;;;36.60;27.80;;;;;;5137399;28;20201;-46
2022/06/19 09:54:50;;;;;;;35.13;5.75;;;36.60;28.00;;;;;;5140843;28;20723;-46
2022/06/19 09:57:26;;;;;;;23.27;6.30;;;36.70;27.80;;;;;;5139186;28;20216;-47
2022/06/19 10:00:06;;;;;;;21.25;5.55;;;36.50;28.00;;;;;;5140629;28;20211;-47
2022/06/19 10:03:00;;;;;;;22.05;3.88;;;36.50;26.90;;;;;;5137732;28;20235;-47
2022/06/19 10:05:39;;;;;;;17.25;3.75;;;36.40;27.10;;;;;;5140386;28;20390;-46
2022/06/19 10:08:19;;;;;;;17.30;3.65;;;36.20;26.70;;;;;;5139112;28;20267;-46
2022/06/19 10:11:20;;;;;;;16.67;4.43;;;36.10;27.30;;;;;;5140241;28;20204;-48
2022/06/19 10:14:10;;;;;;;22.00;6.13;;;36.10;27.40;;;;;;5138424;28;20208;-46
2022/06/19 10:16:47;;;;;;;15.10;4.15;;;36.10;27.30;;;;;;5140449;28;20197;-46
2022/06/19 10:19:23;;;;;;;10.63;3.40;;;36.10;27.50;;;;;;5139824;28;20189;-49
2022/06/19 10:22:15;;;;;;;12.18;4.32;;;36.10;27.70;;;;;;5132221;28;20254;-46
2022/06/19 10:25:23;;;;;;;12.07;4.22;;;36.10;27.50;;;;;;5128719;28;20279;-46
2022/06/19 10:28:02;;;;;;;27.77;5.05;;;36.00;27.60;;;;;;5135056;28;20653;-47
2022/06/19 10:31:03;;;;;;;12.35;3.78;;;36.10;27.70;;;;;;5136655;28;20641;-46
2022/06/19 10:33:59;;;;;;;11.27;3.53;;;36.10;27.70;;;;;;5140503;28;20193;-48
2022/06/19 10:36:37;;;;;;;20.20;4.03;;;36.00;27.60;;;;;;5144879;28;20722;-46
2022/06/19 10:39:27;;;;;;;18.30;4.85;;;36.00;27.90;;;;;;5142937;28;20197;-45
2022/06/19 10:42:11;;;;;;;8.68;3.38;;;36.10;27.80;;;;;;5137152;28;20216;-48
2022/06/19 10:45:07;;;;;;;10.07;4.25;;;36.10;27.90;;;;;;5152463;28;20288;-47
2022/06/19 10:48:09;;;;;;;13.60;4.05;;;35.90;27.70;;;;;;5137683;28;20193;-46
2022/06/19 10:51:21;;;;;;;16.95;4.80;;;35.90;27.90;;;;;;5138318;28;20184;-46
2022/06/19 10:54:24;;;;;;;8.13;2.95;;;35.90;28.10;;;;;;5144084;28;20212;-48
2022/06/19 10:57:05;;;;;;;8.57;3.88;;;35.90;28.10;;;;;;5137559;28;20303;-49
2022/06/19 10:59:36;;;;;;;16.50;4.55;;;36.10;28.10;;;;;;5135972;28;20189;-49
2022/06/19 11:05:55;;;;;;;11.40;3.83;;;36.00;28.10;;;;;;5135515;28;20611;-48
2022/06/19 11:08:28;;;;;;;11.32;4.05;;;36.10;28.30;;;;;;5145329;28;20223;-46
2022/06/19 11:11:00;;;;;;;18.10;3.75;;;36.20;28.10;;;;;;5140406;28;20193;-46
2022/06/19 11:14:09;;;;;;;17.27;4.53;;;36.20;27.80;;;;;;5140206;28;20242;-46
2022/06/19 11:16:59;;;;;;;9.35;3.75;;;36.10;28.00;;;;;;5142744;28;20223;-45
2022/06/19 11:19:35;;;;;;;15.50;4.78;;;36.00;28.00;;;;;;5138665;28;20224;-49
2022/06/19 11:22:32;;;;;;;30.63;5.28;;;36.00;28.00;;;;;;5143164;28;20219;-47
2022/06/19 11:25:30;;;;;;;18.98;5.25;;;36.10;28.00;;;;;;5126774;28;20213;-47
2022/06/19 11:28:13;;;;;;;15.18;4.68;;;36.10;27.90;;;;;;5139001;28;20231;-47
2022/06/19 11:30:50;;;;;;;12.88;4.57;;;36.10;28.10;;;;;;5135834;28;20177;-45
2022/06/19 11:33:33;;;;;;;14.40;4.47;;;36.10;28.30;;;;;;5138154;28;20292;-46
2022/06/19 11:36:08;;;;;;;17.52;4.35;;;36.10;28.00;;;;;;5136046;28;20181;-46
2022/06/19 11:38:43;;;;;;;16.27;5.47;;;36.10;27.90;;;;;;5124079;28;20193;-47
2022/06/19 11:41:34;;;;;;;19.23;4.72;;;36.10;28.00;;;;;;5138593;28;20181;-48
2022/06/19 11:44:17;;;;;;;8.68;4.20;;;36.10;28.30;;;;;;5140877;28;20279;-47
2022/06/19 11:46:54;;;;;;;18.38;3.60;;;36.20;28.30;;;;;;5139560;28;20181;-46
2022/06/19 11:49:36;;;;;;;14.65;4.35;;;36.20;28.30;;;;;;5140163;28;20609;-45
2022/06/19 11:52:19;;;;;;;16.83;4.47;;;36.00;28.40;;;;;;5141270;28;20252;-47
2022/06/19 11:54:51;;;;;;;11.25;3.95;;;35.90;29.90;;;;;;5142991;28;20634;-46
2022/06/19 11:57:25;;;;;;;14.82;4.88;;;35.50;31.90;;;;;;5141300;28;20192;-47
2022/06/19 11:59:59;;;;;;;24.00;5.93;;;35.40;33.30;;;;;;5130300;28;20197;-47
2022/06/19 12:02:40;;;;;;;9.45;4.80;;;35.00;35.80;;;;;;5121096;28;20213;-46
2022/06/19 12:05:29;;;;;;;17.73;5.70;;;34.50;36.90;;;;;;5139314;28;20294;-52
2022/06/19 12:08:15;;;;;;;7.10;4.60;;;34.40;37.90;;;;;;5134285;28;20182;-45
2022/06/19 12:10:53;;;;;;;6.65;4.95;;;34.10;38.10;;;;;;5135828;28;20224;-46
2022/06/19 12:13:30;;;;;;;12.13;5.68;;;33.90;38.40;;;;;;5145591;28;20231;-48
2022/06/19 12:16:10;;;;;;;10.45;4.72;;;33.60;38.50;;;;;;5141228;28;20197;-47
2022/06/19 12:18:41;;;;;;;17.97;4.90;;;33.40;38.60;;;;;;5140085;28;20192;-46
2022/06/19 12:21:29;;;;;;;22.17;4.93;;;33.20;38.70;;;;;;5143708;28;20207;-46
2022/06/19 12:24:09;;;;;;;31.67;5.30;;;33.10;39.00;;;;;;5144277;28;20308;-48
2022/06/19 12:26:54;;;;;;;6.97;4.77;;;33.10;38.90;;;;;;5139651;28;20232;-46
2022/06/19 12:29:36;;;;;;;8.20;4.17;;;33.10;39.10;;;;;;5138566;28;20185;-45
2022/06/19 12:32:38;;;;;;;9.53;3.80;;;33.20;37.70;;;;;;5113656;28;20229;-46
2022/06/19 12:35:24;;;;;;;9.67;4.33;;;33.10;36.50;;;;;;5129412;28;20192;-47
2022/06/19 12:37:55;;;;;;;8.53;4.30;;;33.00;37.40;;;;;;5143384;28;20196;-46
2022/06/19 12:40:41;;;;;;;13.93;5.10;;;32.90;37.40;;;;;;5141501;28;20650;-47
2022/06/19 12:43:20;;;;;;;16.77;4.73;;;32.90;37.20;;;;;;5142816;28;20558;-48
2022/06/19 12:45:58;;;;;;;12.77;4.60;;;33.00;37.30;;;;;;5138338;28;20303;-49
2022/06/19 12:48:41;;;;;;;12.50;3.80;;;32.90;37.30;;;;;;5140955;28;20185;-46
2022/06/19 12:51:19;;;;;;;11.10;4.50;;;32.70;37.60;;;;;;5140581;28;20594;-46
2022/06/19 12:54:08;;;;;;;12.10;5.03;;;32.60;37.70;;;;;;5155978;28;20295;-45
2022/06/19 12:57:04;;;;;;;20.83;3.73;;;32.60;37.60;;;;;;5143953;28;20680;-46
2022/06/19 12:59:55;;;;;;;5.97;3.40;;;32.70;37.80;;;;;;5139414;28;20335;-45
2022/06/19 13:02:49;;;;;;;8.83;4.27;;;32.90;37.00;;;;;;5161349;28;20209;-46
2022/06/19 13:05:51;;;;;;;23.40;4.73;;;32.80;36.50;;;;;;5157419;28;20209;-45
2022/06/19 13:08:47;;;;;;;8.00;3.20;;;32.80;36.70;;;;;;5142687;28;20177;-46
2022/06/19 13:11:32;;;;;;;15.60;4.40;;;32.60;36.70;;;;;;5139589;28;20185;-49
2022/06/19 13:14:02;;;;;;;27.70;4.30;;;32.30;36.90;;;;;;5134373;28;20197;-47
2022/06/19 13:16:43;;;;;;;14.63;4.67;;;32.10;37.60;;;;;;5139331;28;20233;-47
2022/06/19 13:19:34;;;;;;;13.63;4.77;;;32.10;37.60;;;;;;5138374;28;20185;-46
2022/06/19 13:22:19;;;;;;;13.33;4.77;;;32.10;37.50;;;;;;5137037;28;20359;-45
2022/06/19 13:25:13;;;;;;;15.67;4.70;;;31.90;36.50;;;;;;5143733;28;20483;-46
2022/06/19 13:27:50;;;;;;;17.43;4.87;;;31.80;36.90;;;;;;5144557;28;20178;-46
2022/06/19 13:30:33;;;;;;;18.43;4.47;;;31.70;36.80;;;;;;5143703;28;20432;-49
2022/06/19 13:33:24;;;;;;;11.77;4.27;;;31.70;37.40;;;;;;5136582;28;20542;-48
2022/06/19 13:35:57;;;;;;;18.10;5.10;;;31.60;37.30;;;;;;5135687;28;20433;-46
2022/06/19 13:38:58;;;;;;;9.27;4.07;;;31.70;37.20;;;;;;5142347;28;20437;-47
2022/06/19 13:41:55;;;;;;;16.47;4.40;;;31.60;37.10;;;;;;5141165;28;20196;-47
2022/06/19 13:45:00;;;;;;;15.10;4.10;;;31.70;37.20;;;;;;5138457;28;20569;-45